SARP/PSS METAR and TAF weather

Enter ICAO airport designator
Station Type Date Time Source
SARP METAR 2022/06/28 15:00 UTC NOAA

SARP 281500Z 27014KT 9999 SCT040TCU SCT100 21/16 Q1016


Station Type Date Time Source
SARP Decoded METAR 2022/06/28 15:00 UTC NOAA

Posadas Aero., Argentina (SARP) 27-22S 055-58W 133M
Jun 28, 2022 - 11:00 AM EDT / 2022.06.28 1500 UTC
Wind: from the W (270 degrees) at 16 MPH (14 KT):0
Visibility: greater than 7 mile(s):0
Sky conditions: partly cloudy
Weather: Towering cumulus clouds observed
Temperature: 69 F (21 C)
Dew Point: 60 F (16 C)
Relative Humidity: 73%
Pressure (altimeter): 30.00 in. Hg (1016 hPa)
ob: SARP 281500Z 27014KT 9999 SCT040TCU SCT100 21/16 Q1016
cycle: 15

Station Type Date Time Source
SARP TAF 2022/06/28 12:30 UTC NOAA

TAF SARP 281100Z 2812/2912 36005KT CAVOK TX18/2818Z TN08/2910Z
BECMG 2817/2818 24010KT 5000 -TSRA BKN006 OVC030
BECMG 2908/2909 0500 FG OVC003

Example: see airport list